sensor_id;sensor_type;location;lat;lon;timestamp;pressure;altitude;pressure_sealevel;temperature;humidity
30819;BME280;17546;42.674;23.284;2022-11-11T00:00:12;95864.91;;;16.80;47.60
30819;BME280;17546;42.674;23.284;2022-11-11T00:02:37;95869.22;;;16.76;47.96
30819;BME280;17546;42.674;23.284;2022-11-11T00:05:03;95865.69;;;16.81;47.75
30819;BME280;17546;42.674;23.284;2022-11-11T00:07:29;95869.97;;;17.04;47.11
30819;BME280;17546;42.674;23.284;2022-11-11T00:09:54;95858.03;;;16.87;47.54
30819;BME280;17546;42.674;23.284;2022-11-11T00:12:20;95858.50;;;17.02;47.32
30819;BME280;17546;42.674;23.284;2022-11-11T00:14:45;95861.06;;;17.00;47.32
30819;BME280;17546;42.674;23.284;2022-11-11T00:17:12;95860.78;;;17.04;47.14
30819;BME280;17546;42.674;23.284;2022-11-11T00:19:56;95867.09;;;17.27;46.53
30819;BME280;17546;42.674;23.284;2022-11-11T00:22:40;95871.72;;;17.07;47.11
30819;BME280;17546;42.674;23.284;2022-11-11T00:25:24;95861.50;;;17.27;46.64
30819;BME280;17546;42.674;23.284;2022-11-11T00:27:50;95869.91;;;17.21;46.63
30819;BME280;17546;42.674;23.284;2022-11-11T00:30:15;95876.72;;;17.37;46.22
30819;BME280;17546;42.674;23.284;2022-11-11T00:32:41;95874.72;;;17.26;46.55
30819;BME280;17546;42.674;23.284;2022-11-11T00:35:07;95874.69;;;17.32;46.19
30819;BME280;17546;42.674;23.284;2022-11-11T00:37:51;95874.53;;;17.02;47.10
30819;BME280;17546;42.674;23.284;2022-11-11T00:40:17;95873.50;;;17.10;47.20
30819;BME280;17546;42.674;23.284;2022-11-11T00:42:42;95880.16;;;16.96;47.36
30819;BME280;17546;42.674;23.284;2022-11-11T00:45:09;95866.69;;;16.89;47.59
30819;BME280;17546;42.674;23.284;2022-11-11T00:47:34;95865.38;;;17.07;47.26
30819;BME280;17546;42.674;23.284;2022-11-11T00:50:27;95863.84;;;17.06;47.32
30819;BME280;17546;42.674;23.284;2022-11-11T00:53:14;95873.66;;;17.46;46.51
30819;BME280;17546;42.674;23.284;2022-11-11T00:55:40;95864.91;;;16.63;48.14
30819;BME280;17546;42.674;23.284;2022-11-11T00:58:06;95870.25;;;16.56;48.59
30819;BME280;17546;42.674;23.284;2022-11-11T01:00:31;95867.44;;;16.78;47.85
30819;BME280;17546;42.674;23.284;2022-11-11T01:02:57;95870.47;;;17.03;47.46
30819;BME280;17546;42.674;23.284;2022-11-11T01:05:23;95868.16;;;17.01;47.54
30819;BME280;17546;42.674;23.284;2022-11-11T01:07:49;95866.66;;;16.78;47.98
30819;BME280;17546;42.674;23.284;2022-11-11T01:10:16;95857.97;;;17.09;47.22
30819;BME280;17546;42.674;23.284;2022-11-11T01:13:03;95854.09;;;17.24;46.95
30819;BME280;17546;42.674;23.284;2022-11-11T01:15:42;95857.50;;;16.94;47.61
30819;BME280;17546;42.674;23.284;2022-11-11T01:18:10;95864.09;;;17.13;47.10
30819;BME280;17546;42.674;23.284;2022-11-11T01:20:39;95856.50;;;16.91;47.64
30819;BME280;17546;42.674;23.284;2022-11-11T01:23:06;95860.53;;;17.07;47.33
30819;BME280;17546;42.674;23.284;2022-11-11T01:25:34;95864.13;;;16.97;47.50
30819;BME280;17546;42.674;23.284;2022-11-11T01:28:00;95867.94;;;16.93;47.31
30819;BME280;17546;42.674;23.284;2022-11-11T01:30:26;95866.41;;;16.98;47.47
30819;BME280;17546;42.674;23.284;2022-11-11T01:32:51;95859.31;;;16.80;48.06
30819;BME280;17546;42.674;23.284;2022-11-11T01:35:16;95865.69;;;16.81;48.11
30819;BME280;17546;42.674;23.284;2022-11-11T01:37:42;95862.59;;;16.79;47.97
30819;BME280;17546;42.674;23.284;2022-11-11T01:40:08;95858.53;;;16.68;48.31
30819;BME280;17546;42.674;23.284;2022-11-11T01:45:48;95861.59;;;16.82;47.94
30819;BME280;17546;42.674;23.284;2022-11-11T01:48:33;95859.03;;;16.84;47.92
30819;BME280;17546;42.674;23.284;2022-11-11T01:51:33;95860.31;;;16.77;47.90
30819;BME280;17546;42.674;23.284;2022-11-11T01:54:07;95874.06;;;16.64;48.37
30819;BME280;17546;42.674;23.284;2022-11-11T01:56:48;95864.16;;;16.46;48.88
30819;BME280;17546;42.674;23.284;2022-11-11T01:59:16;95873.53;;;16.60;48.35
30819;BME280;17546;42.674;23.284;2022-11-11T02:01:43;95875.59;;;16.48;48.92
30819;BME280;17546;42.674;23.284;2022-11-11T02:04:09;95874.31;;;16.38;49.30
30819;BME280;17546;42.674;23.284;2022-11-11T02:06:57;95874.31;;;16.15;50.04
30819;BME280;17546;42.674;23.284;2022-11-11T02:09:24;95878.63;;;16.10;50.27
30819;BME280;17546;42.674;23.284;2022-11-11T02:11:52;95888.78;;;16.08;50.55
30819;BME280;17546;42.674;23.284;2022-11-11T02:14:43;95884.00;;;16.37;49.65
30819;BME280;17546;42.674;23.284;2022-11-11T02:17:11;95885.22;;;16.02;50.63
30819;BME280;17546;42.674;23.284;2022-11-11T02:19:47;95882.41;;;16.02;50.58
30819;BME280;17546;42.674;23.284;2022-11-11T02:22:23;95885.16;;;15.79;51.04
30819;BME280;17546;42.674;23.284;2022-11-11T02:24:52;95885.44;;;15.81;51.14
30819;BME280;17546;42.674;23.284;2022-11-11T02:27:18;95874.31;;;16.15;50.36
30819;BME280;17546;42.674;23.284;2022-11-11T02:29:46;95874.06;;;16.07;50.35
30819;BME280;17546;42.674;23.284;2022-11-11T02:32:13;95872.28;;;16.21;49.90
30819;BME280;17546;42.674;23.284;2022-11-11T02:34:38;95874.59;;;16.23;49.78
30819;BME280;17546;42.674;23.284;2022-11-11T02:37:06;95881.91;;;16.09;50.09
30819;BME280;17546;42.674;23.284;2022-11-11T02:39:34;95876.84;;;16.13;49.92
30819;BME280;17546;42.674;23.284;2022-11-11T02:42:02;95868.47;;;16.19;49.93
30819;BME280;17546;42.674;23.284;2022-11-11T02:44:34;95869.50;;;16.44;49.25
30819;BME280;17546;42.674;23.284;2022-11-11T02:47:00;95872.28;;;16.55;48.79
30819;BME280;17546;42.674;23.284;2022-11-11T02:49:25;95885.00;;;16.39;49.25
30819;BME280;17546;42.674;23.284;2022-11-11T02:51:51;95875.34;;;16.57;48.74
30819;BME280;17546;42.674;23.284;2022-11-11T02:54:16;95875.59;;;16.65;48.66
30819;BME280;17546;42.674;23.284;2022-11-11T02:56:42;95876.84;;;16.64;48.75
30819;BME280;17546;42.674;23.284;2022-11-11T02:59:25;95874.31;;;16.49;49.25
30819;BME280;17546;42.674;23.284;2022-11-11T03:01:51;95874.31;;;16.60;49.16
30819;BME280;17546;42.674;23.284;2022-11-11T03:04:16;95882.72;;;16.71;48.91
30819;BME280;17546;42.674;23.284;2022-11-11T03:06:42;95877.34;;;16.62;48.96
30819;BME280;17546;42.674;23.284;2022-11-11T03:09:07;95885.25;;;16.81;48.71
30819;BME280;17546;42.674;23.284;2022-11-11T03:11:32;95884.00;;;16.65;49.10
30819;BME280;17546;42.674;23.284;2022-11-11T03:14:01;95889.56;;;16.70;49.12
30819;BME280;17546;42.674;23.284;2022-11-11T03:16:27;95885.25;;;16.81;48.96
30819;BME280;17546;42.674;23.284;2022-11-11T03:19:11;95880.66;;;16.72;49.79
30819;BME280;17546;42.674;23.284;2022-11-11T03:21:37;95886.72;;;17.16;48.62
30819;BME280;17546;42.674;23.284;2022-11-11T03:24:02;95887.94;;;17.26;48.36
30819;BME280;17546;42.674;23.284;2022-11-11T03:26:28;95888.94;;;17.34;47.99
30819;BME280;17546;42.674;23.284;2022-11-11T03:28:53;95884.09;;;17.40;48.15
30819;BME280;17546;42.674;23.284;2022-11-11T03:31:22;95877.69;;;17.51;47.95
30819;BME280;17546;42.674;23.284;2022-11-11T03:33:48;95877.75;;;17.34;48.05
30819;BME280;17546;42.674;23.284;2022-11-11T03:36:13;95875.78;;;17.12;48.72
30819;BME280;17546;42.674;23.284;2022-11-11T03:38:39;95879.00;;;17.39;48.18
30819;BME280;17546;42.674;23.284;2022-11-11T03:41:05;95875.56;;;16.99;49.33
30819;BME280;17546;42.674;23.284;2022-11-11T03:43:32;95870.44;;;17.08;49.37
30819;BME280;17546;42.674;23.284;2022-11-11T03:46:00;95884.19;;;17.18;49.41
30819;BME280;17546;42.674;23.284;2022-11-11T03:48:27;95870.41;;;17.25;49.30
30819;BME280;17546;42.674;23.284;2022-11-11T03:50:52;95877.06;;;17.11;49.63
30819;BME280;17546;42.674;23.284;2022-11-11T03:53:19;95882.66;;;17.05;50.01
30819;BME280;17546;42.674;23.284;2022-11-11T03:55:45;95878.09;;;17.08;50.50
30819;BME280;17546;42.674;23.284;2022-11-11T03:58:11;95877.53;;;17.15;50.29
30819;BME280;17546;42.674;23.284;2022-11-11T04:00:36;95885.25;;;16.92;51.21
30819;BME280;17546;42.674;23.284;2022-11-11T04:03:05;95879.34;;;17.18;50.72
30819;BME280;17546;42.674;23.284;2022-11-11T04:05:50;95875.56;;;16.70;52.00
30819;BME280;17546;42.674;23.284;2022-11-11T04:08:34;95868.69;;;17.05;51.39
30819;BME280;17546;42.674;23.284;2022-11-11T04:11:24;95878.00;;;17.30;50.99
30819;BME280;17546;42.674;23.284;2022-11-11T04:13:52;95874.50;;;17.13;51.23
30819;BME280;17546;42.674;23.284;2022-11-11T04:16:37;95877.50;;;17.32;50.77
30819;BME280;17546;42.674;23.284;2022-11-11T04:19:02;95877.53;;;17.26;50.97
30819;BME280;17546;42.674;23.284;2022-11-11T04:21:46;95876.75;;;17.26;50.96
30819;BME280;17546;42.674;23.284;2022-11-11T04:24:15;95882.63;;;17.17;51.15
30819;BME280;17546;42.674;23.284;2022-11-11T04:27:01;95888.56;;;16.96;51.60
30819;BME280;17546;42.674;23.284;2022-11-11T04:29:27;95883.72;;;16.85;51.73
30819;BME280;17546;42.674;23.284;2022-11-11T04:32:01;95884.44;;;17.08;51.37
30819;BME280;17546;42.674;23.284;2022-11-11T04:34:47;95891.84;;;16.72;52.12
30819;BME280;17546;42.674;23.284;2022-11-11T04:37:14;95894.13;;;16.79;52.00
30819;BME280;17546;42.674;23.284;2022-11-11T04:39:47;95894.16;;;16.96;51.43
30819;BME280;17546;42.674;23.284;2022-11-11T04:42:32;95891.34;;;16.90;51.74
30819;BME280;17546;42.674;23.284;2022-11-11T04:45:01;95894.91;;;16.80;51.99
30819;BME280;17546;42.674;23.284;2022-11-11T04:50:21;95905.78;;;17.23;50.83
30819;BME280;17546;42.674;23.284;2022-11-11T04:52:47;95903.97;;;17.37;50.46
30819;BME280;17546;42.674;23.284;2022-11-11T04:55:13;95893.06;;;17.22;50.78
30819;BME280;17546;42.674;23.284;2022-11-11T04:57:57;95899.94;;;17.21;50.64
30819;BME280;17546;42.674;23.284;2022-11-11T05:00:22;95909.84;;;17.22;50.71
30819;BME280;17546;42.674;23.284;2022-11-11T05:02:56;95901.72;;;17.12;50.92
30819;BME280;17546;42.674;23.284;2022-11-11T05:05:51;95901.91;;;17.37;50.14
30819;BME280;17546;42.674;23.284;2022-11-11T05:08:37;95903.56;;;16.65;52.15
30819;BME280;17546;42.674;23.284;2022-11-11T05:11:34;95902.03;;;16.98;51.11
30819;BME280;17546;42.674;23.284;2022-11-11T05:14:02;95896.44;;;16.52;52.16
30819;BME280;17546;42.674;23.284;2022-11-11T05:16:49;95905.06;;;16.49;52.34
30819;BME280;17546;42.674;23.284;2022-11-11T05:19:33;95905.59;;;16.64;52.09
30819;BME280;17546;42.674;23.284;2022-11-11T05:22:24;95908.88;;;16.68;51.85
30819;BME280;17546;42.674;23.284;2022-11-11T05:24:51;95905.59;;;16.42;52.56
30819;BME280;17546;42.674;23.284;2022-11-11T05:27:35;95905.34;;;16.73;51.69
30819;BME280;17546;42.674;23.284;2022-11-11T05:30:00;95900.72;;;17.10;50.60
30819;BME280;17546;42.674;23.284;2022-11-11T05:32:26;95900.94;;;17.23;50.31
30819;BME280;17546;42.674;23.284;2022-11-11T05:34:52;95907.00;;;17.39;49.83
30819;BME280;17546;42.674;23.284;2022-11-11T05:37:18;95913.19;;;17.20;50.49
30819;BME280;17546;42.674;23.284;2022-11-11T05:39:44;95911.91;;;17.27;50.22
30819;BME280;17546;42.674;23.284;2022-11-11T05:42:10;95921.72;;;17.56;49.71
30819;BME280;17546;42.674;23.284;2022-11-11T05:44:35;95930.75;;;17.15;50.54
30819;BME280;17546;42.674;23.284;2022-11-11T05:47:01;95932.72;;;17.48;49.69
30819;BME280;17546;42.674;23.284;2022-11-11T05:49:27;95921.72;;;17.56;49.80
30819;BME280;17546;42.674;23.284;2022-11-11T05:51:52;95924.66;;;16.49;52.30
30819;BME280;17546;42.674;23.284;2022-11-11T05:54:20;95931.78;;;16.50;52.42
30819;BME280;17546;42.674;23.284;2022-11-11T05:56:45;95938.13;;;16.33;52.95
30819;BME280;17546;42.674;23.284;2022-11-11T05:59:11;95939.09;;;16.08;53.58
30819;BME280;17546;42.674;23.284;2022-11-11T06:01:39;95945.38;;;15.86;54.18
30819;BME280;17546;42.674;23.284;2022-11-11T06:04:05;95955.63;;;16.17;53.47
30819;BME280;17546;42.674;23.284;2022-11-11T06:06:31;95948.56;;;16.39;53.05
30819;BME280;17546;42.674;23.284;2022-11-11T06:08:57;95953.91;;;16.70;52.21
30819;BME280;17546;42.674;23.284;2022-11-11T06:11:23;95955.72;;;17.07;51.16
30819;BME280;17546;42.674;23.284;2022-11-11T06:13:48;95973.00;;;17.11;50.96
30819;BME280;17546;42.674;23.284;2022-11-11T06:16:14;95969.44;;;17.17;50.81
30819;BME280;17546;42.674;23.284;2022-11-11T06:18:40;95981.41;;;17.06;51.08
30819;BME280;17546;42.674;23.284;2022-11-11T06:21:06;95981.13;;;17.32;50.49
30819;BME280;17546;42.674;23.284;2022-11-11T06:23:31;95985.97;;;17.31;50.33
30819;BME280;17546;42.674;23.284;2022-11-11T06:25:57;95987.97;;;17.42;50.03
30819;BME280;17546;42.674;23.284;2022-11-11T06:31:13;95996.38;;;17.42;49.97
30819;BME280;17546;42.674;23.284;2022-11-11T06:33:40;96000.22;;;17.33;50.22
30819;BME280;17546;42.674;23.284;2022-11-11T06:36:06;95992.28;;;17.43;50.07
30819;BME280;17546;42.674;23.284;2022-11-11T06:38:32;96006.56;;;17.34;50.07
30819;BME280;17546;42.674;23.284;2022-11-11T06:40:58;96001.97;;;17.53;49.66
30819;BME280;17546;42.674;23.284;2022-11-11T06:43:23;96004.56;;;16.95;51.11
30819;BME280;17546;42.674;23.284;2022-11-11T06:45:53;96009.16;;;16.81;51.56
30819;BME280;17546;42.674;23.284;2022-11-11T06:48:20;96009.13;;;17.21;50.61
30819;BME280;17546;42.674;23.284;2022-11-11T06:50:46;96006.59;;;17.40;49.96
30819;BME280;17546;42.674;23.284;2022-11-11T06:53:13;96010.91;;;17.29;50.48
30819;BME280;17546;42.674;23.284;2022-11-11T06:55:39;96014.72;;;17.32;50.23
30819;BME280;17546;42.674;23.284;2022-11-11T06:58:09;96026.44;;;17.36;50.29
30819;BME280;17546;42.674;23.284;2022-11-11T07:00:35;96019.31;;;16.90;51.35
30819;BME280;17546;42.674;23.284;2022-11-11T07:03:02;96021.38;;;17.01;51.50
30819;BME280;17546;42.674;23.284;2022-11-11T07:05:28;96009.63;;;16.74;52.24
30819;BME280;17546;42.674;23.284;2022-11-11T07:07:54;96011.56;;;16.28;53.51
30819;BME280;17546;42.674;23.284;2022-11-11T07:10:20;96017.22;;;16.57;52.64
30819;BME280;17546;42.674;23.284;2022-11-11T07:12:45;96010.88;;;16.45;52.74
30819;BME280;17546;42.674;23.284;2022-11-11T07:15:11;96018.25;;;16.59;52.33
30819;BME280;17546;42.674;23.284;2022-11-11T07:17:37;96016.47;;;16.56;52.40
30819;BME280;17546;42.674;23.284;2022-11-11T07:20:03;96022.31;;;16.47;52.57
30819;BME280;17546;42.674;23.284;2022-11-11T07:22:28;96023.13;;;16.81;51.93
30819;BME280;17546;42.674;23.284;2022-11-11T07:24:54;96029.72;;;16.67;51.70
30819;BME280;17546;42.674;23.284;2022-11-11T07:27:19;96033.19;;;16.33;52.61
30819;BME280;17546;42.674;23.284;2022-11-11T07:29:45;96038.03;;;16.44;52.44
30819;BME280;17546;42.674;23.284;2022-11-11T07:32:13;96037.22;;;16.21;52.81
30819;BME280;17546;42.674;23.284;2022-11-11T07:34:39;96045.19;;;16.51;52.33
30819;BME280;17546;42.674;23.284;2022-11-11T07:37:04;96045.72;;;16.66;51.88
30819;BME280;17546;42.674;23.284;2022-11-11T07:39:29;96044.94;;;16.55;52.08
30819;BME280;17546;42.674;23.284;2022-11-11T07:41:55;96050.75;;;16.40;52.16
30819;BME280;17546;42.674;23.284;2022-11-11T07:44:20;96058.13;;;15.77;53.94
30819;BME280;17546;42.674;23.284;2022-11-11T07:46:45;96055.38;;;16.54;52.22
30819;BME280;17546;42.674;23.284;2022-11-11T07:49:11;96055.34;;;16.43;52.34
30819;BME280;17546;42.674;23.284;2022-11-11T07:51:36;96058.00;;;16.09;52.94
30819;BME280;17546;42.674;23.284;2022-11-11T07:54:02;96062.63;;;16.18;52.87
30819;BME280;17546;42.674;23.284;2022-11-11T07:56:28;96063.19;;;15.73;54.13
30819;BME280;17546;42.674;23.284;2022-11-11T07:58:53;96063.28;;;15.90;53.89
30819;BME280;17546;42.674;23.284;2022-11-11T08:01:18;96065.44;;;16.23;53.48
30819;BME280;17546;42.674;23.284;2022-11-11T08:03:44;96069.84;;;16.52;54.02
30819;BME280;17546;42.674;23.284;2022-11-11T08:06:17;96074.00;;;16.03;52.98
30819;BME280;17546;42.674;23.284;2022-11-11T08:08:43;96058.88;;;15.78;53.35
30819;BME280;17546;42.674;23.284;2022-11-11T08:11:08;96059.03;;;16.06;52.77
30819;BME280;17546;42.674;23.284;2022-11-11T08:13:34;96066.78;;;15.79;53.02
30819;BME280;17546;42.674;23.284;2022-11-11T08:16:10;96071.97;;;16.09;52.69
30819;BME280;17546;42.674;23.284;2022-11-11T08:18:36;96075.91;;;15.74;52.99
30819;BME280;17546;42.674;23.284;2022-11-11T08:21:04;96080.75;;;15.85;53.04
30819;BME280;17546;42.674;23.284;2022-11-11T08:23:30;96075.53;;;16.04;52.80
30819;BME280;17546;42.674;23.284;2022-11-11T08:28:27;96077.06;;;15.67;53.49
30819;BME280;17546;42.674;23.284;2022-11-11T08:30:52;96080.75;;;15.79;53.32
30819;BME280;17546;42.674;23.284;2022-11-11T08:33:18;96071.19;;;15.97;52.99
30819;BME280;17546;42.674;23.284;2022-11-11T08:35:43;96074.66;;;15.81;53.44
30819;BME280;17546;42.674;23.284;2022-11-11T08:38:09;96079.06;;;15.99;52.96
30819;BME280;17546;42.674;23.284;2022-11-11T08:40:35;96077.34;;;16.13;52.56
30819;BME280;17546;42.674;23.284;2022-11-11T08:43:00;96076.75;;;15.97;52.92
30819;BME280;17546;42.674;23.284;2022-11-11T08:45:25;96082.16;;;15.63;53.27
30819;BME280;17546;42.674;23.284;2022-11-11T08:47:51;96084.97;;;15.69;53.21
30819;BME280;17546;42.674;23.284;2022-11-11T08:50:17;96081.69;;;16.19;51.95
30819;BME280;17546;42.674;23.284;2022-11-11T08:52:52;96075.47;;;15.93;52.61
30819;BME280;17546;42.674;23.284;2022-11-11T08:55:18;96085.69;;;16.07;52.24
30819;BME280;17546;42.674;23.284;2022-11-11T08:57:44;96089.72;;;15.95;52.21
30819;BME280;17546;42.674;23.284;2022-11-11T09:00:10;96076.44;;;16.44;51.20
30819;BME280;17546;42.674;23.284;2022-11-11T09:02:36;96080.38;;;16.86;50.20
30819;BME280;17546;42.674;23.284;2022-11-11T09:05:03;96069.97;;;17.20;49.37
30819;BME280;17546;42.674;23.284;2022-11-11T09:07:30;96067.94;;;16.98;49.97
30819;BME280;17546;42.674;23.284;2022-11-11T09:09:55;96072.25;;;17.10;49.69
30819;BME280;17546;42.674;23.284;2022-11-11T09:12:21;96071.25;;;17.42;49.24
30819;BME280;17546;42.674;23.284;2022-11-11T09:14:46;96073.78;;;17.56;48.59
30819;BME280;17546;42.674;23.284;2022-11-11T09:17:14;96068.16;;;17.56;48.55
30819;BME280;17546;42.674;23.284;2022-11-11T09:19:40;96068.16;;;17.68;48.19
30819;BME280;17546;42.674;23.284;2022-11-11T09:22:06;96073.75;;;17.68;48.12
30819;BME280;17546;42.674;23.284;2022-11-11T09:24:31;96079.84;;;17.72;47.88
30819;BME280;17546;42.674;23.284;2022-11-11T09:26:57;96075.75;;;17.95;47.40
30819;BME280;17546;42.674;23.284;2022-11-11T09:29:22;96073.28;;;17.30;48.24
30819;BME280;17546;42.674;23.284;2022-11-11T09:31:47;96075.81;;;17.17;47.94
30819;BME280;17546;42.674;23.284;2022-11-11T09:34:13;96067.38;;;16.71;48.69
30819;BME280;17546;42.674;23.284;2022-11-11T09:36:39;96062.53;;;16.72;48.34
30819;BME280;17546;42.674;23.284;2022-11-11T09:39:04;96075.31;;;17.12;47.53
30819;BME280;17546;42.674;23.284;2022-11-11T09:47:17;96057.50;;;17.16;47.47
30819;BME280;17546;42.674;23.284;2022-11-11T09:49:53;96055.66;;;16.73;48.40
30819;BME280;17546;42.674;23.284;2022-11-11T09:54:58;96053.06;;;16.52;48.96
30819;BME280;17546;42.674;23.284;2022-11-11T09:57:38;96047.28;;;16.79;48.28
30819;BME280;17546;42.674;23.284;2022-11-11T10:00:14;96048.84;;;17.19;47.39
30819;BME280;17546;42.674;23.284;2022-11-11T10:02:46;96041.16;;;16.74;48.22
30819;BME280;17546;42.674;23.284;2022-11-11T10:05:14;96044.91;;;16.49;48.56
30819;BME280;17546;42.674;23.284;2022-11-11T10:07:57;96042.34;;;16.40;48.52
30819;BME280;17546;42.674;23.284;2022-11-11T10:10:33;96044.16;;;15.77;49.87
30819;BME280;17546;42.674;23.284;2022-11-11T10:13:02;96053.16;;;16.04;49.19
30819;BME280;17546;42.674;23.284;2022-11-11T10:15:34;96040.13;;;16.66;47.83
30819;BME280;17546;42.674;23.284;2022-11-11T10:20:53;96046.16;;;16.25;48.99
30819;BME280;17546;42.674;23.284;2022-11-11T10:23:28;96038.41;;;16.86;47.68
30819;BME280;17546;42.674;23.284;2022-11-11T10:26:00;96048.59;;;16.89;47.39
30819;BME280;17546;42.674;23.284;2022-11-11T10:28:30;96048.53;;;16.78;47.81
30819;BME280;17546;42.674;23.284;2022-11-11T10:31:00;96039.19;;;17.14;47.42
30819;BME280;17546;42.674;23.284;2022-11-11T10:33:35;96041.91;;;17.71;45.88
30819;BME280;17546;42.674;23.284;2022-11-11T10:36:05;96037.91;;;17.38;46.42
30819;BME280;17546;42.674;23.284;2022-11-11T10:41:44;96031.47;;;16.64;47.31
30819;BME280;17546;42.674;23.284;2022-11-11T10:44:25;96028.59;;;16.30;47.61
30819;BME280;17546;42.674;23.284;2022-11-11T10:47:00;96023.59;;;16.57;47.01
30819;BME280;17546;42.674;23.284;2022-11-11T10:49:31;96039.66;;;16.73;46.68
30819;BME280;17546;42.674;23.284;2022-11-11T10:52:09;96026.56;;;16.31;46.87
30819;BME280;17546;42.674;23.284;2022-11-11T10:54:43;96021.25;;;16.33;46.79
30819;BME280;17546;42.674;23.284;2022-11-11T11:02:54;96022.34;;;17.37;44.51
30819;BME280;17546;42.674;23.284;2022-11-11T11:05:47;96018.81;;;17.20;44.69
30819;BME280;17546;42.674;23.284;2022-11-11T11:08:18;96022.88;;;17.35;44.12
30819;BME280;17546;42.674;23.284;2022-11-11T11:10:53;96023.84;;;16.70;44.92
30819;BME280;17546;42.674;23.284;2022-11-11T11:13:24;96014.94;;;16.55;45.28
30819;BME280;17546;42.674;23.284;2022-11-11T11:16:14;96006.84;;;17.08;43.91
30819;BME280;17546;42.674;23.284;2022-11-11T11:18:41;96008.13;;;17.12;43.88
30819;BME280;17546;42.674;23.284;2022-11-11T11:21:09;96006.56;;;16.66;44.15
30819;BME280;17546;42.674;23.284;2022-11-11T11:23:42;96001.75;;;17.29;42.94
30819;BME280;17546;42.674;23.284;2022-11-11T11:26:10;96005.31;;;17.12;42.44
30819;BME280;17546;42.674;23.284;2022-11-11T11:31:33;96003.22;;;17.52;41.36
30819;BME280;17546;42.674;23.284;2022-11-11T11:33:59;95994.72;;;17.98;40.25
30819;BME280;17546;42.674;23.284;2022-11-11T11:36:25;95982.00;;;17.85;40.32
30819;BME280;17546;42.674;23.284;2022-11-11T11:38:50;95986.06;;;17.95;40.06
30819;BME280;17546;42.674;23.284;2022-11-11T11:41:35;95989.69;;;17.68;40.48
30819;BME280;17546;42.674;23.284;2022-11-11T11:44:01;95988.66;;;17.71;40.62
30819;BME280;17546;42.674;23.284;2022-11-11T11:46:36;95975.72;;;17.62;40.81
30819;BME280;17546;42.674;23.284;2022-11-11T11:55:09;95978.66;;;17.98;40.67
30819;BME280;17546;42.674;23.284;2022-11-11T11:57:45;95982.94;;;18.52;39.79
30819;BME280;17546;42.674;23.284;2022-11-11T12:00:20;95982.25;;;18.76;38.68
30819;BME280;17546;42.674;23.284;2022-11-11T12:05:40;95979.84;;;18.61;39.04
30819;BME280;17546;42.674;23.284;2022-11-11T12:11:23;95985.88;;;18.29;39.39
30819;BME280;17546;42.674;23.284;2022-11-11T12:14:42;95981.66;;;18.11;39.58
30819;BME280;17546;42.674;23.284;2022-11-11T12:16:40;95977.56;;;18.12;39.64
30819;BME280;17546;42.674;23.284;2022-11-11T12:27:24;95957.03;;;17.87;40.27
30819;BME280;17546;42.674;23.284;2022-11-11T12:30:09;95950.94;;;17.83;40.16
30819;BME280;17546;42.674;23.284;2022-11-11T12:35:57;95956.03;;;17.85;40.42
30819;BME280;17546;42.674;23.284;2022-11-11T12:41:15;95953.16;;;17.96;40.09
30819;BME280;17546;42.674;23.284;2022-11-11T12:44:07;95947.72;;;18.15;39.51
30819;BME280;17546;42.674;23.284;2022-11-11T12:46:50;95942.78;;;17.85;40.19
30819;BME280;17546;42.674;23.284;2022-11-11T12:52:44;95953.50;;;18.28;39.60
30819;BME280;17546;42.674;23.284;2022-11-11T12:55:22;95953.28;;;18.26;39.59
30819;BME280;17546;42.674;23.284;2022-11-11T13:01:03;95955.50;;;18.39;39.52
30819;BME280;17546;42.674;23.284;2022-11-11T13:03:50;95963.63;;;18.43;39.50
30819;BME280;17546;42.674;23.284;2022-11-11T13:17:13;95960.94;;;18.62;38.53
30819;BME280;17546;42.674;23.284;2022-11-11T13:22:47;95962.44;;;17.63;40.27
30819;BME280;17546;42.674;23.284;2022-11-11T13:25:25;95955.38;;;17.39;40.67
30819;BME280;17546;42.674;23.284;2022-11-11T13:27:56;95958.41;;;17.58;40.07
30819;BME280;17546;42.674;23.284;2022-11-11T13:33:17;95957.81;;;17.82;40.12
30819;BME280;17546;42.674;23.284;2022-11-11T13:38:31;95963.44;;;18.29;39.52
30819;BME280;17546;42.674;23.284;2022-11-11T13:41:04;95974.94;;;18.26;39.18
30819;BME280;17546;42.674;23.284;2022-11-11T13:43:31;95968.13;;;18.57;39.07
30819;BME280;17546;42.674;23.284;2022-11-11T13:46:00;95969.88;;;18.60;39.16
30819;BME280;17546;42.674;23.284;2022-11-11T13:50:52;95966.81;;;18.58;39.14
30819;BME280;17546;42.674;23.284;2022-11-11T13:53:32;95973.94;;;19.01;38.77
30819;BME280;17546;42.674;23.284;2022-11-11T13:56:04;95975.59;;;19.15;38.37
30819;BME280;17546;42.674;23.284;2022-11-11T13:58:33;95973.16;;;19.00;38.48
30819;BME280;17546;42.674;23.284;2022-11-11T14:01:01;95971.41;;;18.97;38.30
30819;BME280;17546;42.674;23.284;2022-11-11T14:13:52;95966.88;;;18.52;38.71
30819;BME280;17546;42.674;23.284;2022-11-11T14:24:24;95975.06;;;19.16;37.82
30819;BME280;17546;42.674;23.284;2022-11-11T14:27:17;95975.72;;;18.98;38.00
30819;BME280;17546;42.674;23.284;2022-11-11T14:29:53;95983.63;;;19.30;37.93
30819;BME280;17546;42.674;23.284;2022-11-11T14:40:29;95988.16;;;19.08;38.45
30819;BME280;17546;42.674;23.284;2022-11-11T14:42:55;95986.31;;;19.16;38.43
30819;BME280;17546;42.674;23.284;2022-11-11T14:47:56;95984.34;;;19.36;38.32
30819;BME280;17546;42.674;23.284;2022-11-11T14:53:18;96004.84;;;19.01;40.52
30819;BME280;17546;42.674;23.284;2022-11-11T14:55:50;96001.75;;;19.29;40.39
30819;BME280;17546;42.674;23.284;2022-11-11T14:58:19;95999.06;;;19.17;39.71
30819;BME280;17546;42.674;23.284;2022-11-11T15:01:02;95999.28;;;19.19;39.96
30819;BME280;17546;42.674;23.284;2022-11-11T15:03:50;96004.13;;;18.89;40.93
30819;BME280;17546;42.674;23.284;2022-11-11T15:06:46;96005.00;;;19.08;40.44